createdAt,value
2018-06-13T00:01:43.045Z,60.90
2018-06-13T00:04:12.932Z,59.50
2018-06-13T00:06:42.874Z,59.30
2018-06-13T00:09:13.473Z,59.70
2018-06-13T00:11:43.792Z,59.30
2018-06-13T00:14:13.603Z,59.00
2018-06-13T00:16:43.729Z,59.00
2018-06-13T00:19:13.450Z,59.20
2018-06-13T00:21:43.381Z,59.40
2018-06-13T00:24:13.643Z,59.70
2018-06-13T00:26:43.481Z,60.40
2018-06-13T00:31:43.356Z,59.40
2018-06-13T00:40:21.220Z,61.40
2018-06-13T00:42:51.335Z,60.70
2018-06-13T00:45:21.206Z,60.10
2018-06-13T00:47:51.350Z,60.50
2018-06-13T00:50:21.696Z,60.30
2018-06-13T00:52:52.299Z,60.00
2018-06-13T00:55:22.383Z,59.50
2018-06-13T00:57:52.482Z,59.80
2018-06-13T01:00:22.742Z,60.00
2018-06-13T01:02:53.015Z,60.20
2018-06-13T01:05:23.231Z,61.40
2018-06-13T01:07:53.325Z,61.00
2018-06-13T01:10:23.336Z,60.20
2018-06-13T01:12:53.164Z,61.20
2018-06-13T01:15:23.085Z,60.50
2018-06-13T01:17:53.118Z,60.40
2018-06-13T01:20:23.089Z,61.20
2018-06-13T01:22:53.162Z,61.40
2018-06-13T01:25:23.049Z,61.70
2018-06-13T01:27:52.986Z,61.50
2018-06-13T01:30:23.299Z,61.20
2018-06-13T01:32:53.308Z,60.80
2018-06-13T01:35:23.166Z,60.20
2018-06-13T01:37:53.354Z,61.10
2018-06-13T01:40:23.603Z,60.80
2018-06-13T01:42:53.496Z,61.20
2018-06-13T01:45:23.540Z,61.60
2018-06-13T01:47:53.632Z,61.30
2018-06-13T01:50:23.791Z,61.70
2018-06-13T01:52:53.915Z,62.10
2018-06-13T01:55:23.885Z,61.60
2018-06-13T01:57:53.954Z,61.20
2018-06-13T02:00:23.765Z,61.00
2018-06-13T02:02:53.831Z,61.70
2018-06-13T02:07:53.894Z,62.10
2018-06-13T02:10:23.878Z,61.60
2018-06-13T02:12:53.938Z,61.80
2018-06-13T02:15:23.964Z,60.60
2018-06-13T02:17:54.090Z,61.00
2018-06-13T02:20:24.113Z,60.40
2018-06-13T02:22:54.328Z,61.20
2018-06-13T02:25:24.398Z,61.60
2018-06-13T02:27:54.319Z,61.70
2018-06-13T02:30:24.800Z,61.90
2018-06-13T02:32:55.104Z,61.70
2018-06-13T02:35:24.999Z,62.20
2018-06-13T02:37:55.108Z,62.40
2018-06-13T02:40:25.301Z,62.20
2018-06-13T02:42:55.251Z,61.50
2018-06-13T02:45:25.010Z,62.60
2018-06-13T02:47:55.199Z,62.70
2018-06-13T02:50:25.436Z,63.10
2018-06-13T02:52:55.367Z,62.60
2018-06-13T02:55:25.280Z,62.50
2018-06-13T02:57:55.282Z,62.80
2018-06-13T03:00:25.381Z,63.20
2018-06-13T03:02:55.458Z,63.60
2018-06-13T03:05:25.890Z,64.00
2018-06-13T03:07:56.085Z,64.40
2018-06-13T03:10:26.184Z,64.50
2018-06-13T03:12:56.155Z,64.00
2018-06-13T03:15:26.000Z,63.90
2018-06-13T03:17:55.740Z,64.00
2018-06-13T03:20:25.834Z,64.50
2018-06-13T03:22:55.645Z,64.40
2018-06-13T03:25:25.386Z,63.30
2018-06-13T03:27:55.283Z,64.40
2018-06-13T03:30:25.225Z,64.70
2018-06-13T03:32:55.159Z,64.70
2018-06-13T03:37:55.727Z,65.50
2018-06-13T03:40:25.521Z,65.90
2018-06-13T03:45:25.108Z,65.90
2018-06-13T03:47:55.775Z,65.30
2018-06-13T03:50:25.641Z,65.30
2018-06-13T03:52:55.487Z,65.90
2018-06-13T03:55:25.716Z,65.60
2018-06-13T03:57:55.485Z,65.70
2018-06-13T04:00:26.154Z,65.30
2018-06-13T04:02:56.295Z,66.50
2018-06-13T04:07:58.584Z,72.50
2018-06-13T04:10:28.610Z,67.80
2018-06-13T04:12:58.965Z,62.70
2018-06-13T04:15:29.154Z,62.30
2018-06-13T04:17:59.075Z,62.80
2018-06-13T04:20:28.991Z,64.00
2018-06-13T04:22:59.740Z,61.70
2018-06-13T04:28:00.174Z,63.00
2018-06-13T04:30:31.131Z,64.80
2018-06-13T04:33:01.546Z,66.50
2018-06-13T04:35:32.652Z,67.20
2018-06-13T04:38:02.590Z,66.80
2018-06-13T04:40:33.536Z,65.40
2018-06-13T04:43:03.382Z,65.60
2018-06-13T04:45:34.094Z,65.10
2018-06-13T04:48:03.927Z,65.80
2018-06-13T04:50:33.935Z,66.00
2018-06-13T04:53:04.174Z,66.60
2018-06-13T04:55:34.110Z,66.20
2018-06-13T04:58:04.171Z,66.50
2018-06-13T05:00:34.002Z,66.40
2018-06-13T05:03:04.052Z,66.10
2018-06-13T05:05:34.254Z,66.70
2018-06-13T05:08:04.229Z,67.20
2018-06-13T05:10:34.172Z,66.90
2018-06-13T05:13:04.275Z,66.90
2018-06-13T05:15:34.746Z,66.60
2018-06-13T05:18:04.756Z,66.60
2018-06-13T05:20:34.725Z,67.30
2018-06-13T05:23:04.445Z,65.60
2018-06-13T05:25:34.759Z,66.80
2018-06-13T05:28:04.856Z,67.10
2018-06-13T05:30:35.062Z,65.50
2018-06-13T05:33:05.034Z,65.90
2018-06-13T05:35:34.900Z,66.50
2018-06-13T05:38:05.290Z,66.40
2018-06-13T05:40:35.191Z,67.30
2018-06-13T05:43:05.242Z,67.10
2018-06-13T05:48:05.065Z,66.70
2018-06-13T05:50:35.044Z,67.50
2018-06-13T05:53:04.932Z,68.20
2018-06-13T05:55:35.218Z,68.50
2018-06-13T05:58:05.386Z,67.80
2018-06-13T06:00:35.464Z,66.70
2018-06-13T06:03:05.682Z,67.00
2018-06-13T06:05:35.477Z,66.60
2018-06-13T06:08:06.011Z,67.40
2018-06-13T06:10:36.243Z,66.00
2018-06-13T06:13:06.499Z,65.70
2018-06-13T06:15:36.466Z,65.40
2018-06-13T06:18:06.792Z,65.20
2018-06-13T06:23:06.474Z,64.10
2018-06-13T06:25:36.509Z,63.70
2018-06-13T06:28:06.760Z,64.60
2018-06-13T06:30:36.702Z,65.40
2018-06-13T06:33:07.192Z,64.90
2018-06-13T06:35:37.316Z,64.80
2018-06-13T06:38:07.456Z,64.60
2018-06-13T06:40:37.802Z,65.60
2018-06-13T06:43:07.961Z,64.90
2018-06-13T06:45:38.016Z,64.30
2018-06-13T06:48:07.825Z,63.30
2018-06-13T06:50:37.566Z,62.40
2018-06-13T06:53:07.674Z,61.70
2018-06-13T06:55:37.649Z,61.40
2018-06-13T06:58:07.618Z,62.20
2018-06-13T07:00:37.580Z,62.30
2018-06-13T07:03:07.736Z,62.70
2018-06-13T07:08:08.816Z,63.30
2018-06-13T07:10:39.957Z,62.40
2018-06-13T07:13:10.248Z,61.40
2018-06-13T07:15:40.631Z,61.70
2018-06-13T07:18:11.206Z,62.20
2018-06-13T07:20:42.591Z,61.90
2018-06-13T07:23:12.888Z,61.50
2018-06-13T07:25:43.022Z,61.00
2018-06-13T07:28:13.065Z,60.10
2018-06-13T07:30:44.348Z,60.00
2018-06-13T07:33:14.983Z,60.40
2018-06-13T07:35:45.142Z,58.60
2018-06-13T07:38:15.667Z,59.60
2018-06-13T07:40:46.196Z,59.30
2018-06-13T07:43:16.438Z,59.30
2018-06-13T07:45:47.216Z,60.00
2018-06-13T07:48:17.833Z,59.90
2018-06-13T07:50:48.597Z,59.80
2018-06-13T07:53:18.538Z,59.00
2018-06-13T07:55:49.352Z,58.30
2018-06-13T07:58:19.526Z,58.10
2018-06-13T08:00:50.706Z,55.60
2018-06-13T08:03:20.749Z,53.10
2018-06-13T08:05:51.725Z,54.20
2018-06-13T08:08:21.714Z,53.50
2018-06-13T08:10:52.448Z,53.70
2018-06-13T08:13:22.600Z,52.70
2018-06-13T08:15:52.742Z,52.20
2018-06-13T08:18:23.052Z,52.50
2018-06-13T08:20:54.453Z,53.40
2018-06-13T08:23:24.805Z,53.80
2018-06-13T08:25:54.711Z,52.60
2018-06-13T08:28:24.955Z,51.10
2018-06-13T08:30:55.187Z,51.40
2018-06-13T08:33:25.487Z,51.90
2018-06-13T08:35:55.682Z,51.70
2018-06-13T08:38:25.907Z,52.70
2018-06-13T08:40:56.088Z,53.50
2018-06-13T08:43:26.113Z,53.30
2018-06-13T08:45:56.407Z,53.30
2018-06-13T08:48:26.402Z,54.70
2018-06-13T08:50:56.307Z,55.00
2018-06-13T08:53:26.182Z,55.70
2018-06-13T08:55:56.517Z,54.10
2018-06-13T08:58:26.432Z,54.90
2018-06-13T09:00:56.800Z,53.60
2018-06-13T09:03:26.788Z,53.70
2018-06-13T09:05:56.873Z,54.30
2018-06-13T09:08:26.960Z,54.20
2018-06-13T09:10:57.101Z,54.00
2018-06-13T09:13:27.107Z,54.10
2018-06-13T09:15:57.412Z,53.80
2018-06-13T09:18:27.414Z,53.80
2018-06-13T09:20:57.326Z,54.00
2018-06-13T09:23:27.336Z,53.60
2018-06-13T09:25:57.482Z,53.80
2018-06-13T09:28:27.620Z,55.00
2018-06-13T09:30:57.416Z,53.50
2018-06-13T09:33:27.969Z,53.70
2018-06-13T09:35:58.408Z,54.10
2018-06-13T09:38:28.689Z,54.10
2018-06-13T09:40:58.638Z,55.20
2018-06-13T09:43:28.686Z,55.30
2018-06-13T09:46:03.399Z,55.70
2018-06-13T09:48:29.132Z,55.20
2018-06-13T09:50:59.272Z,54.70
2018-06-13T09:53:29.497Z,55.20
2018-06-13T09:55:59.676Z,53.80
2018-06-13T09:58:33.882Z,54.20
2018-06-13T10:01:08.892Z,54.20
2018-06-13T10:03:39.262Z,54.30
2018-06-13T10:06:09.325Z,53.80
2018-06-13T10:08:39.543Z,53.40
2018-06-13T10:11:09.818Z,53.30
2018-06-13T10:13:39.852Z,53.30
2018-06-13T10:16:09.812Z,52.80
2018-06-13T10:18:39.654Z,52.10
2018-06-13T10:21:10.113Z,52.70
2018-06-13T10:23:40.452Z,51.80
2018-06-13T10:26:11.200Z,51.50
2018-06-13T10:28:41.249Z,52.20
2018-06-13T10:31:11.471Z,52.60
2018-06-13T10:33:41.745Z,52.30
2018-06-13T10:36:11.783Z,52.90
2018-06-13T10:38:41.913Z,52.00
2018-06-13T10:41:12.139Z,51.10
2018-06-13T10:43:42.386Z,50.80
2018-06-13T10:46:12.451Z,51.10
2018-06-13T10:48:42.601Z,50.40
2018-06-13T10:51:12.973Z,50.90
2018-06-13T10:53:42.957Z,50.20
2018-06-13T10:56:13.083Z,50.60
2018-06-13T10:58:43.062Z,50.80
2018-06-13T11:01:12.986Z,52.00
2018-06-13T11:03:42.856Z,51.10
2018-06-13T11:06:13.712Z,50.50
2018-06-13T11:08:44.137Z,51.00
2018-06-13T11:11:14.262Z,51.40
2018-06-13T11:13:44.478Z,51.10
2018-06-13T11:16:14.692Z,50.80
2018-06-13T11:18:44.715Z,52.10
2018-06-13T11:21:15.188Z,51.10
2018-06-13T11:23:45.286Z,51.20
2018-06-13T11:26:15.499Z,50.90
2018-06-13T11:28:45.926Z,50.20
2018-06-13T11:31:16.026Z,50.60
2018-06-13T11:33:46.079Z,49.40
2018-06-13T11:36:16.250Z,49.10
2018-06-13T11:38:46.672Z,49.80
2018-06-13T11:41:16.929Z,49.00
2018-06-13T11:43:46.976Z,48.90
2018-06-13T11:46:17.232Z,48.30
2018-06-13T11:48:47.313Z,47.30
2018-06-13T11:51:17.582Z,47.90
2018-06-13T11:56:17.884Z,47.00
2018-06-13T11:58:48.054Z,47.90
2018-06-13T12:01:18.237Z,47.00
2018-06-13T12:03:48.641Z,46.20
2018-06-13T12:06:18.743Z,46.50
2018-06-13T12:08:49.072Z,45.30
2018-06-13T12:11:19.224Z,45.50
2018-06-13T12:13:49.344Z,44.60
2018-06-13T12:16:19.393Z,45.50
2018-06-13T12:18:49.624Z,45.80
2018-06-13T12:21:19.968Z,46.10
2018-06-13T12:23:50.255Z,44.60
2018-06-13T12:26:20.321Z,44.60
2018-06-13T12:28:50.517Z,45.30
2018-06-13T12:31:20.554Z,45.20
2018-06-13T12:33:50.852Z,44.10
2018-06-13T12:36:21.096Z,44.70
2018-06-13T12:38:51.303Z,44.10
2018-06-13T12:41:21.454Z,44.40
2018-06-13T12:43:51.198Z,44.30
2018-06-13T12:46:21.367Z,43.90
2018-06-13T12:48:51.128Z,43.30
2018-06-13T12:53:51.667Z,44.00
2018-06-13T12:56:22.614Z,43.10
2018-06-13T12:58:52.953Z,43.80
2018-06-13T13:01:23.164Z,43.20
2018-06-13T13:03:53.368Z,44.10
2018-06-13T13:06:23.244Z,44.20
2018-06-13T13:08:53.254Z,44.20
2018-06-13T13:11:23.390Z,44.60
2018-06-13T13:13:54.167Z,45.00
2018-06-13T13:16:24.299Z,45.10
2018-06-13T13:18:54.357Z,44.40
2018-06-13T13:21:24.487Z,43.40
2018-06-13T13:23:54.946Z,42.10
2018-06-13T13:26:25.212Z,43.10
2018-06-13T13:28:55.610Z,42.30
2018-06-13T13:31:25.875Z,41.50
2018-06-13T13:33:55.936Z,40.90
2018-06-13T13:36:26.057Z,41.60
2018-06-13T13:38:56.254Z,41.10
2018-06-13T13:41:26.290Z,41.20
2018-06-13T13:43:56.592Z,39.90
2018-06-13T13:46:26.722Z,40.00
2018-06-13T13:48:56.894Z,40.60
2018-06-13T13:51:27.138Z,40.60
2018-06-13T13:53:57.212Z,40.80
2018-06-13T13:56:27.493Z,40.70
2018-06-13T13:58:57.731Z,41.20
2018-06-13T14:01:27.828Z,41.50
2018-06-13T14:03:58.068Z,40.10
2018-06-13T14:06:28.195Z,39.80
2018-06-13T14:08:58.297Z,40.40
2018-06-13T14:11:28.620Z,40.80
2018-06-13T14:13:58.657Z,41.40
2018-06-13T14:16:28.994Z,41.90
2018-06-13T14:18:59.319Z,41.40
2018-06-13T14:21:30.173Z,40.90
2018-06-13T14:24:00.469Z,40.70
2018-06-13T14:26:30.773Z,40.50
2018-06-13T14:29:00.885Z,38.60
2018-06-13T14:31:31.218Z,38.20
2018-06-13T14:34:01.238Z,37.70
2018-06-13T14:36:31.718Z,37.80
2018-06-13T14:39:02.091Z,39.00
2018-06-13T14:41:32.282Z,38.80
2018-06-13T14:44:03.129Z,39.30
2018-06-13T14:46:33.505Z,38.90
2018-06-13T14:51:33.742Z,37.50
2018-06-13T14:54:03.872Z,37.00
2018-06-13T14:56:34.550Z,37.40
2018-06-13T14:59:04.698Z,38.80
2018-06-13T15:01:34.911Z,38.00
2018-06-13T15:04:05.583Z,38.30
2018-06-13T15:06:35.754Z,38.30
2018-06-13T15:09:09.651Z,37.70
2018-06-13T15:11:40.648Z,37.00
2018-06-13T15:14:11.211Z,37.10
2018-06-13T15:16:41.339Z,37.20
2018-06-13T15:19:11.670Z,36.20
2018-06-13T15:21:41.806Z,42.20
2018-06-13T15:24:12.018Z,37.90
2018-06-13T15:26:42.225Z,39.50
2018-06-13T15:29:12.654Z,35.00
2018-06-13T15:31:42.697Z,36.60
2018-06-13T15:34:13.003Z,37.60
2018-06-13T15:36:43.148Z,37.50
2018-06-13T15:39:15.085Z,35.40
2018-06-13T15:41:45.890Z,38.10
2018-06-13T15:44:16.635Z,37.40
2018-06-13T15:46:46.807Z,37.80
2018-06-13T15:49:16.946Z,36.60
2018-06-13T15:51:47.093Z,36.40
2018-06-13T15:59:18.578Z,37.20
2018-06-13T16:01:49.053Z,37.20
2018-06-13T16:04:19.564Z,38.50
2018-06-13T16:06:50.246Z,38.80
2018-06-13T16:09:20.474Z,38.50
2018-06-13T16:11:50.753Z,39.50
2018-06-13T16:14:21.128Z,39.00
2018-06-13T16:16:52.086Z,40.10
2018-06-13T16:19:22.305Z,39.10
2018-06-13T16:21:53.011Z,38.30
2018-06-13T16:24:23.520Z,39.80
2018-06-13T16:26:53.913Z,40.10
2018-06-13T16:29:25.168Z,39.60
2018-06-13T16:31:55.191Z,39.50
2018-06-13T16:34:25.562Z,39.80
2018-06-13T16:36:56.097Z,39.70
2018-06-13T16:39:26.183Z,40.30
2018-06-13T16:41:56.596Z,41.00
2018-06-13T16:44:27.010Z,41.80
2018-06-13T16:46:57.261Z,40.50
2018-06-13T16:49:27.318Z,41.90
2018-06-13T16:51:58.641Z,41.40
2018-06-13T16:57:09.630Z,40.60
2018-06-13T16:59:39.840Z,42.20
2018-06-13T17:02:10.101Z,42.00
2018-06-13T17:04:40.544Z,41.50
2018-06-13T17:07:10.807Z,41.00
2018-06-13T17:09:40.906Z,41.70
2018-06-13T17:12:11.130Z,41.80
2018-06-13T17:14:41.629Z,42.30
2018-06-13T17:17:12.390Z,41.80
2018-06-13T17:19:42.701Z,41.30
2018-06-13T17:22:13.092Z,41.80
2018-06-13T17:24:43.084Z,41.70
2018-06-13T17:27:13.208Z,41.20
2018-06-13T17:29:43.268Z,42.60
2018-06-13T17:32:13.590Z,41.20
2018-06-13T17:34:43.633Z,42.20
2018-06-13T17:37:13.859Z,41.90
2018-06-13T17:39:43.984Z,42.70
2018-06-13T17:42:14.224Z,42.20
2018-06-13T17:44:44.520Z,42.00
2018-06-13T17:47:15.731Z,42.50
2018-06-13T17:49:46.156Z,42.30
2018-06-13T17:52:16.336Z,42.40
2018-06-13T17:54:46.662Z,43.20
2018-06-13T17:57:17.383Z,42.90
2018-06-13T17:59:48.527Z,43.30
2018-06-13T18:02:19.386Z,43.50
2018-06-13T18:04:49.854Z,43.30
2018-06-13T18:07:20.651Z,43.30
2018-06-13T18:09:51.158Z,43.80
2018-06-13T18:12:21.536Z,43.70
2018-06-13T18:14:51.910Z,43.60
2018-06-13T18:17:22.313Z,43.90
2018-06-13T18:19:53.115Z,43.80
2018-06-13T18:22:23.309Z,43.70
2018-06-13T18:24:53.495Z,44.10
2018-06-13T18:27:23.755Z,43.70
2018-06-13T18:29:53.910Z,43.10
2018-06-13T18:32:24.340Z,43.00
2018-06-13T18:34:54.728Z,43.20
2018-06-13T18:37:25.328Z,43.30
2018-06-13T18:39:55.738Z,43.70
2018-06-13T18:42:25.934Z,44.90
2018-06-13T18:44:56.069Z,44.80
2018-06-13T18:47:26.108Z,44.10
2018-06-13T18:49:56.438Z,44.10
2018-06-13T18:52:26.705Z,43.40
2018-06-13T18:54:56.739Z,43.50
2018-06-13T18:57:27.012Z,43.80
2018-06-13T18:59:57.151Z,44.10
2018-06-13T19:02:27.539Z,44.10
2018-06-13T19:04:58.185Z,44.00
2018-06-13T19:07:28.598Z,44.20
2018-06-13T19:09:59.238Z,44.40
2018-06-13T19:12:29.485Z,44.80
2018-06-13T19:14:59.567Z,44.90
2018-06-13T19:17:29.961Z,45.00
2018-06-13T19:20:00.137Z,44.90
2018-06-13T19:22:30.419Z,45.40
2018-06-13T19:25:00.643Z,45.00
2018-06-13T19:27:30.823Z,45.60
2018-06-13T19:30:01.517Z,45.30
2018-06-13T19:32:31.674Z,46.00
2018-06-13T19:35:01.829Z,46.60
2018-06-13T19:37:32.157Z,47.90
2018-06-13T19:40:02.329Z,50.70
2018-06-13T19:42:32.790Z,50.50
2018-06-13T19:45:02.763Z,50.80
2018-06-13T19:47:38.203Z,51.20
2018-06-13T19:50:08.769Z,51.70
2018-06-13T19:52:44.154Z,51.90
2018-06-13T19:55:19.425Z,52.10
2018-06-13T19:57:49.814Z,51.70
2018-06-13T20:00:20.946Z,51.10
2018-06-13T20:02:56.320Z,50.50
2018-06-13T20:05:31.510Z,50.90
2018-06-13T20:08:01.650Z,51.80
2018-06-13T20:10:31.822Z,50.80
2018-06-13T20:13:07.025Z,51.20
2018-06-13T20:15:42.128Z,51.80
2018-06-13T20:18:17.208Z,52.70
2018-06-13T20:20:48.126Z,53.40
2018-06-13T20:23:18.309Z,53.60
2018-06-13T20:25:54.122Z,54.20
2018-06-13T20:28:29.098Z,54.40
2018-06-13T20:33:34.098Z,54.40
2018-06-13T20:36:04.316Z,54.30
2018-06-13T20:38:34.423Z,54.70
2018-06-13T20:41:04.293Z,54.50
2018-06-13T20:43:34.664Z,55.00
2018-06-13T20:46:04.740Z,55.00
2018-06-13T20:48:34.873Z,55.10
2018-06-13T20:51:05.245Z,55.70
2018-06-13T20:53:35.479Z,55.20
2018-06-13T20:56:05.680Z,55.50
2018-06-13T20:58:35.835Z,55.90
2018-06-13T21:01:06.096Z,56.70
2018-06-13T21:03:36.394Z,57.00
2018-06-13T21:06:06.523Z,57.00
2018-06-13T21:08:36.648Z,57.30
2018-06-13T21:11:06.762Z,56.80
2018-06-13T21:13:37.055Z,56.30
2018-06-13T21:16:07.404Z,56.60
2018-06-13T21:18:37.360Z,56.60
2018-06-13T21:21:07.629Z,56.80
2018-06-13T21:23:37.774Z,57.30
2018-06-13T21:26:07.943Z,57.80
2018-06-13T21:28:38.120Z,58.20
2018-06-13T21:31:08.561Z,58.00
2018-06-13T21:33:38.646Z,58.00
2018-06-13T21:36:08.670Z,57.60
2018-06-13T21:41:08.464Z,58.70
2018-06-13T21:43:38.463Z,58.70
2018-06-13T21:46:08.524Z,59.20
2018-06-13T21:48:38.735Z,59.20
2018-06-13T21:51:08.928Z,59.30
2018-06-13T21:53:39.113Z,59.50
2018-06-13T21:56:09.203Z,59.30
2018-06-13T21:58:39.324Z,59.60
2018-06-13T22:01:09.536Z,59.20
2018-06-13T22:03:39.761Z,60.20
2018-06-13T22:06:09.980Z,60.00
2018-06-13T22:08:40.288Z,59.80
2018-06-13T22:11:10.551Z,59.10
2018-06-13T22:13:40.720Z,60.30
2018-06-13T22:16:10.862Z,60.40
2018-06-13T22:18:40.874Z,59.90
2018-06-13T22:21:11.312Z,60.50
2018-06-13T22:23:41.076Z,60.50
2018-06-13T22:26:11.584Z,60.50
2018-06-13T22:31:11.417Z,61.20
2018-06-13T22:33:41.354Z,60.70
2018-06-13T22:36:11.226Z,60.70
2018-06-13T22:38:41.266Z,61.00
2018-06-13T22:41:11.255Z,61.90
2018-06-13T22:43:41.230Z,61.30
2018-06-13T22:46:11.215Z,61.20
2018-06-13T22:48:41.475Z,61.30
2018-06-13T22:51:11.475Z,61.10
2018-06-13T22:53:41.751Z,60.90
2018-06-13T22:56:11.962Z,61.00
2018-06-13T22:58:42.206Z,61.10
2018-06-13T23:01:13.239Z,61.20
2018-06-13T23:03:43.600Z,61.10
2018-06-13T23:06:13.877Z,61.10
2018-06-13T23:08:44.100Z,61.20
2018-06-13T23:11:14.235Z,61.40
2018-06-13T23:13:44.137Z,61.10
2018-06-13T23:16:14.060Z,60.50
2018-06-13T23:18:44.386Z,59.70
2018-06-13T23:21:14.551Z,61.40
2018-06-13T23:23:45.031Z,61.50
2018-06-13T23:26:14.890Z,61.50
2018-06-13T23:28:44.692Z,60.70
2018-06-13T23:31:14.675Z,60.80
2018-06-13T23:33:45.056Z,61.60
2018-06-13T23:36:14.986Z,60.70
2018-06-13T23:38:44.971Z,61.90
2018-06-13T23:41:14.866Z,61.80
2018-06-13T23:46:14.840Z,61.70
2018-06-13T23:48:45.431Z,62.30
2018-06-13T23:51:15.467Z,61.80
2018-06-13T23:53:45.537Z,62.00
2018-06-13T23:56:15.841Z,62.60
2018-06-13T23:58:45.969Z,62.20
